Time;durP1;ratioP1;P1;durP2;ratioP2;P2;SDS_P1;SDS_P2;PMS_P1;PMS_P2;Temp;Humidity;BMP_temperature;BMP_pressure;BME280_temperature;BME280_humidity;BME280_pressure;Samples;Min_cycle;Max_cycle;Signal;HPM_P1;HPM_P2
2021/03/31 00:03:40;;;;;;;1999.90;999.90;;;;;;;11.07;66.72;102221.03;15704610;28;20161;-64
2021/03/31 00:11:13;;;;;;;1999.90;999.90;;;;;;;10.98;66.64;102201.31;15722019;28;20109;-64
2021/03/31 00:18:44;;;;;;;1999.90;999.90;;;;;;;10.78;67.46;102189.59;15750296;28;20373;-64
2021/03/31 00:26:17;;;;;;;1999.90;999.90;;;;;;;10.70;67.04;102183.53;15749684;28;20506;-64
2021/03/31 00:33:48;;;;;;;1999.90;999.90;;;;;;;10.59;66.88;102184.78;15752409;28;20072;-64
2021/03/31 00:41:21;;;;;;;1999.90;999.90;;;;;;;10.47;67.37;102183.53;15716077;28;20045;-65
2021/03/31 00:48:52;;;;;;;1999.90;999.90;;;;;;;10.37;67.51;102181.69;15749730;28;20485;-64
2021/03/31 00:56:25;;;;;;;1999.90;999.90;;;;;;;10.26;67.53;102180.16;15749175;28;20132;-64
2021/03/31 01:03:57;;;;;;;1999.90;999.90;;;;;;;10.09;68.07;102175.81;15731060;28;20044;-64
2021/03/31 01:11:39;;;;;;;1999.90;999.90;;;;;;;10.03;67.91;102173.38;15746354;28;20040;-64
2021/03/31 01:19:29;;;;;;;1999.90;999.90;;;;;;;9.97;68.05;102180.97;15749414;28;20451;-64
2021/03/31 01:27:06;;;;;;;1999.90;999.90;;;;;;;9.82;68.08;102175.53;15730550;28;20044;-64
2021/03/31 01:34:42;;;;;;;1999.90;999.90;;;;;;;9.74;67.99;102176.16;15730781;28;20102;-64
2021/03/31 01:42:16;;;;;;;1999.90;999.90;;;;;;;9.71;68.43;102169.22;15729758;28;20492;-64
2021/03/31 01:49:48;;;;;;;;;;;;;;;9.59;68.82;102167.91;15730329;28;20419;-64
2021/03/31 01:57:23;;;;;;;1999.90;999.90;;;;;;;9.47;68.56;102159.94;15706590;28;20379;-64
2021/03/31 02:04:56;;;;;;;1999.90;999.90;;;;;;;9.37;69.47;102155.25;15745765;28;20048;-64
2021/03/31 02:12:28;;;;;;;1999.90;999.90;;;;;;;9.20;69.44;102150.09;15721590;28;20043;-63
2021/03/31 02:20:01;;;;;;;1999.90;999.90;;;;;;;9.07;69.69;102142.41;15748892;28;20037;-64
2021/03/31 02:27:33;;;;;;;1999.90;999.90;;;;;;;9.08;69.60;102144.06;15745421;28;20048;-65
2021/03/31 02:35:07;;;;;;;1999.90;999.90;;;;;;;8.93;69.85;102125.50;15708199;28;20044;-63
2021/03/31 02:42:40;;;;;;;1999.90;999.90;;;;;;;8.98;69.49;102124.66;15736620;28;20051;-64
2021/03/31 02:50:15;;;;;;;1999.90;999.90;;;;;;;8.84;69.70;102120.81;15709446;28;20063;-64
2021/03/31 02:57:48;;;;;;;1999.90;999.90;;;;;;;8.81;70.03;102121.41;15743570;28;20123;-63
2021/03/31 03:05:21;;;;;;;1999.90;999.90;;;;;;;8.74;70.63;102115.31;15742955;28;20036;-63
2021/03/31 03:12:57;;;;;;;1999.90;999.90;;;;;;;8.59;70.80;102108.72;15724631;28;20520;-63
2021/03/31 03:20:29;;;;;;;1999.90;999.90;;;;;;;8.63;70.29;102114.53;15723954;28;20040;-64
2021/03/31 03:28:01;;;;;;;1999.90;999.90;;;;;;;8.48;70.42;102118.22;15740305;28;20488;-64
2021/03/31 03:35:34;;;;;;;1999.90;999.90;;;;;;;8.51;70.12;102112.09;15741740;28;20412;-64
2021/03/31 03:43:07;;;;;;;1999.90;999.90;;;;;;;8.38;69.96;102105.19;15725197;28;20489;-64
2021/03/31 03:50:40;;;;;;;1999.90;999.90;;;;;;;8.37;70.19;102111.03;15741617;28;20635;-64
2021/03/31 03:58:11;;;;;;;1999.90;999.90;;;;;;;8.24;70.40;102103.28;15657399;22;20075;-55
2021/03/31 04:05:44;;;;;;;1999.90;999.90;;;;;;;8.24;70.39;102100.50;15606692;28;20100;-53
2021/03/31 04:13:15;;;;;;;1999.90;999.90;;;;;;;8.26;70.48;102093.53;15586622;28;20050;-57
2021/03/31 04:20:49;;;;;;;1999.90;999.90;;;;;;;8.09;71.25;102084.69;15572956;28;20046;-57
2021/03/31 04:28:22;;;;;;;1999.90;999.90;;;;;;;8.00;71.05;102078.88;15550608;28;20539;-57
2021/03/31 04:35:55;;;;;;;1999.90;999.90;;;;;;;8.06;70.27;102077.75;15556858;28;20081;-57
2021/03/31 04:43:31;;;;;;;1999.90;999.90;;;;;;;7.94;71.13;102073.63;15605698;28;20064;-57
2021/03/31 04:51:05;;;;;;;1999.90;999.90;;;;;;;7.91;70.75;102079.72;15588630;28;20133;-56
2021/03/31 04:58:36;;;;;;;1999.90;999.90;;;;;;;7.81;71.39;102081.44;15577327;28;20037;-53
2021/03/31 05:06:08;;;;;;;1999.90;999.90;;;;;;;8.21;70.21;102065.72;15522071;28;20092;-57
2021/03/31 05:13:41;;;;;;;1999.90;999.90;;;;;;;8.32;69.70;102061.78;15583044;28;20187;-57
2021/03/31 05:21:13;;;;;;;1999.90;999.90;;;;;;;8.67;69.51;102058.03;15567139;28;20046;-57
2021/03/31 05:28:44;;;;;;;1999.90;999.90;;;;;;;9.64;66.58;102060.00;15555485;28;20054;-55
2021/03/31 05:36:17;;;;;;;1999.90;999.90;;;;;;;10.17;65.09;102050.78;15599119;28;20091;-59
2021/03/31 05:43:49;;;;;;;1999.90;999.90;;;;;;;10.60;64.83;102044.06;15594490;28;20140;-59
2021/03/31 05:51:22;;;;;;;1999.90;999.90;;;;;;;10.94;63.57;102043.88;15565863;28;20153;-59
2021/03/31 05:58:53;;;;;;;1999.90;999.90;;;;;;;11.00;64.58;102044.59;15580023;28;20037;-60
2021/03/31 06:06:27;;;;;;;1999.90;999.90;;;;;;;12.00;62.95;102042.28;15553607;28;20042;-57
2021/03/31 06:14:02;;;;;;;1999.90;999.90;;;;;;;12.27;63.06;102042.25;15610527;28;20041;-60
2021/03/31 06:21:35;;;;;;;1999.90;999.90;;;;;;;12.13;63.73;102045.06;15567741;28;20132;-60
2021/03/31 06:29:08;;;;;;;1999.90;999.90;;;;;;;13.48;60.64;102048.91;15575832;28;20057;-60
2021/03/31 06:36:41;;;;;;;;;;;;;;;15.06;55.95;102046.25;15610149;28;20037;-60
2021/03/31 06:44:16;;;;;;;1999.90;999.90;;;;;;;15.46;54.84;102049.69;15567183;28;19921;-57
2021/03/31 06:51:48;;;;;;;1999.90;999.90;;;;;;;16.27;52.96;102045.94;15520648;28;20059;-59
2021/03/31 06:59:26;;;;;;;1999.90;999.90;;;;;;;16.07;53.72;102039.91;15589877;28;20045;-58
2021/03/31 07:07:00;;;;;;;1999.90;999.90;;;;;;;16.97;51.34;102033.84;15549883;28;20121;-58
2021/03/31 07:14:32;;;;;;;1999.90;999.90;;;;;;;17.74;52.01;102037.09;15570134;28;20041;-56
2021/03/31 07:22:06;;;;;;;1999.90;999.90;;;;;;;18.85;47.91;102044.34;15552455;28;20124;-59
2021/03/31 07:30:05;;;;;;;1999.90;999.90;;;;;;;18.72;46.73;102048.41;15551581;28;20042;-59
2021/03/31 07:37:36;;;;;;;1999.90;999.90;;;;;;;19.75;45.29;102047.75;15588638;28;20536;-58
2021/03/31 07:45:11;;;;;;;1999.90;999.90;;;;;;;21.16;42.18;102040.22;15536129;28;20037;-58
2021/03/31 07:52:56;;;;;;;1999.90;999.90;;;;;;;21.95;38.18;102037.69;15606590;28;20046;-58
2021/03/31 08:01:15;;;;;;;1999.90;999.90;;;;;;;22.33;38.55;102033.91;15560353;28;20042;-58
2021/03/31 08:09:03;;;;;;;1999.90;999.90;;;;;;;22.21;38.54;102034.13;15378189;28;20069;-60
2021/03/31 08:16:38;;;;;;;1999.90;999.90;;;;;;;23.24;36.26;102031.91;15604921;28;20115;-60
2021/03/31 08:24:11;;;;;;;1999.90;999.90;;;;;;;23.81;35.03;102024.03;15565469;28;20038;-60
2021/03/31 08:31:44;;;;;;;1999.90;999.90;;;;;;;23.94;33.68;102033.91;15567220;28;20073;-59
2021/03/31 08:39:16;;;;;;;1999.90;999.90;;;;;;;25.87;32.01;102041.50;15596540;28;20056;-60
2021/03/31 08:46:49;;;;;;;1999.90;999.90;;;;;;;24.57;34.11;102038.50;15575805;28;20073;-60
2021/03/31 08:54:33;;;;;;;1999.90;999.90;;;;;;;26.60;30.27;102021.06;15569070;28;20037;-59
2021/03/31 09:02:06;;;;;;;1999.90;999.90;;;;;;;27.08;27.61;102012.72;15617241;28;20112;-57
2021/03/31 09:09:41;;;;;;;1999.90;999.90;;;;;;;27.01;26.92;102019.28;15611871;28;20137;-60
2021/03/31 09:17:18;;;;;;;1999.90;999.90;;;;;;;28.37;24.70;102013.50;15599888;28;20490;-58
2021/03/31 09:24:52;;;;;;;1999.90;999.90;;;;;;;29.11;23.84;102010.22;15590383;28;20053;-59
2021/03/31 09:32:27;;;;;;;1999.90;999.90;;;;;;;28.90;24.73;102002.69;15588062;28;20050;-58
2021/03/31 09:39:59;;;;;;;1999.90;999.90;;;;;;;29.20;22.22;102001.88;15596400;28;20152;-59
2021/03/31 09:47:31;;;;;;;;;;;;;;;30.24;20.97;101987.53;15577180;28;20061;-60
2021/03/31 09:55:06;;;;;;;1999.90;999.90;;;;;;;30.35;20.21;101984.47;15596616;28;19935;-58
2021/03/31 10:02:39;;;;;;;1999.90;999.90;;;;;;;31.14;19.91;101981.59;15581518;28;20046;-59
2021/03/31 10:10:12;;;;;;;1999.90;999.90;;;;;;;30.44;20.07;101982.63;15596762;28;20050;-60
2021/03/31 10:17:44;;;;;;;1999.90;999.90;;;;;;;30.53;20.09;101958.16;15570980;28;20049;-58
2021/03/31 10:25:24;;;;;;;1999.90;999.90;;;;;;;30.29;20.07;101949.59;15584303;28;20052;-59
2021/03/31 10:32:57;;;;;;;1999.90;999.90;;;;;;;30.96;20.50;101946.63;15589859;28;20173;-59
2021/03/31 10:40:57;;;;;;;1999.90;999.90;;;;;;;30.94;22.36;101938.38;15560132;28;20077;-58
2021/03/31 10:48:36;;;;;;;1999.90;999.90;;;;;;;31.34;20.27;101928.88;15541080;28;20046;-61
2021/03/31 10:56:09;;;;;;;1999.90;999.90;;;;;;;31.98;21.53;101922.31;15577595;28;20060;-59
2021/03/31 11:03:40;;;;;;;1999.90;999.90;;;;;;;31.73;19.28;101911.41;15567240;28;20057;-62
2021/03/31 11:11:13;;;;;;;;;;;;;;;31.34;20.97;101897.97;15575662;28;20426;-60
2021/03/31 11:18:53;;;;;;;1999.90;999.90;;;;;;;32.59;19.05;101883.09;15551969;28;19925;-58
2021/03/31 11:26:26;;;;;;;;;;;;;;;33.77;18.43;101871.44;15551526;28;20053;-60
2021/03/31 11:33:59;;;;;;;1999.90;999.90;;;;;;;33.59;18.85;101855.50;15574934;28;19925;-61
2021/03/31 11:41:32;;;;;;;1999.90;999.90;;;;;;;32.95;18.93;101843.19;15549567;28;20496;-61
2021/03/31 11:49:03;;;;;;;1999.90;999.90;;;;;;;32.96;18.58;101841.09;15561455;28;20042;-61
2021/03/31 11:56:36;;;;;;;1999.90;999.90;;;;;;;33.83;17.60;101820.34;15544975;28;20081;-61
2021/03/31 12:04:07;;;;;;;1999.90;999.90;;;;;;;33.78;16.98;101818.88;15562564;28;20446;-60
2021/03/31 12:11:40;;;;;;;1999.90;999.90;;;;;;;34.60;16.45;101803.41;15587985;28;20053;-61
2021/03/31 12:19:12;;;;;;;1999.90;999.90;;;;;;;34.22;16.58;101797.84;15591481;28;20424;-60
2021/03/31 12:26:44;;;;;;;1999.90;999.90;;;;;;;35.32;15.00;101786.78;15595770;28;20077;-60
2021/03/31 12:34:15;;;;;;;1999.90;999.90;;;;;;;34.02;16.04;101772.94;15578279;28;20132;-62
2021/03/31 12:41:48;;;;;;;1999.90;999.90;;;;;;;34.02;16.06;101767.13;15584121;28;20049;-59
2021/03/31 12:49:21;;;;;;;1999.90;999.90;;;;;;;37.10;13.55;101763.94;15574725;28;20038;-60
2021/03/31 12:56:54;;;;;;;1999.90;999.90;;;;;;;37.39;13.04;101754.53;15570702;28;20656;-61
2021/03/31 13:04:26;;;;;;;1999.90;999.90;;;;;;;36.01;14.25;101734.75;15597398;28;20056;-61
2021/03/31 13:12:01;;;;;;;1999.90;999.90;;;;;;;35.01;14.93;101718.88;15570945;28;20080;-60
2021/03/31 13:35:16;;;;;;;1999.90;999.90;;;;;;;35.35;14.06;101685.09;15521205;28;20447;-60
2021/03/31 13:42:49;;;;;;;1999.90;999.90;;;;;;;38.05;12.71;101669.84;15596499;28;20069;-60
2021/03/31 13:50:21;;;;;;;1999.90;999.90;;;;;;;39.08;13.03;101671.69;15586989;28;20049;-62
2021/03/31 13:57:53;;;;;;;1999.90;999.90;;;;;;;29.19;19.11;101641.03;15592489;28;20068;-61
2021/03/31 14:05:25;;;;;;;1999.90;999.90;;;;;;;28.69;19.99;101622.59;15583353;28;20049;-61
2021/03/31 14:12:58;;;;;;;;;;;;;;;28.25;19.92;101611.44;15552480;28;20045;-60
2021/03/31 14:37:33;;;;;;;1999.90;999.90;;;;;;;27.29;20.21;101581.97;15552494;28;20062;-59
2021/03/31 14:45:06;;;;;;;1999.90;999.90;;;;;;;27.07;20.30;101574.88;15588384;28;20548;-61
2021/03/31 15:00:34;;;;;;;1999.90;999.90;;;;;;;26.75;21.18;101547.38;15580586;28;20654;-59
2021/03/31 15:08:07;;;;;;;1999.90;999.90;;;;;;;26.68;21.81;101541.75;15590038;28;20068;-60
2021/03/31 15:15:39;;;;;;;1999.90;999.90;;;;;;;26.48;21.19;101523.56;15602755;28;20052;-56
2021/03/31 15:23:14;;;;;;;1999.90;999.90;;;;;;;26.44;21.98;101514.97;15551364;28;20188;-58
2021/03/31 15:30:45;;;;;;;1999.90;999.90;;;;;;;26.39;21.67;101506.88;15584057;28;20402;-57
2021/03/31 15:38:19;;;;;;;1999.90;999.90;;;;;;;26.26;22.18;101497.13;15579830;28;20165;-57
2021/03/31 15:45:53;;;;;;;;;;;;;;;26.08;21.94;101492.41;15570970;28;20034;-58
2021/03/31 15:53:25;;;;;;;1999.90;999.90;;;;;;;26.06;22.58;101482.63;15548332;28;19925;-56
2021/03/31 16:00:57;;;;;;;1999.90;999.90;;;;;;;25.99;23.07;101482.66;15598627;22;20476;-72
2021/03/31 16:08:32;;;;;;;1999.90;999.90;;;;;;;25.78;23.15;101469.34;15637560;28;20426;-76
2021/03/31 16:16:05;;;;;;;1999.90;999.90;;;;;;;25.54;23.57;101471.13;15624156;22;20152;-69
2021/03/31 16:23:37;;;;;;;1999.90;999.90;;;;;;;25.44;24.09;101460.59;15656628;28;20041;-69
2021/03/31 16:31:27;;;;;;;1999.90;999.90;;;;;;;25.36;24.60;101448.38;15617111;28;20049;-67
2021/03/31 16:39:00;;;;;;;1999.90;999.90;;;;;;;25.31;24.62;101445.94;15616803;28;20052;-71
2021/03/31 16:46:32;;;;;;;1999.90;999.90;;;;;;;25.08;24.30;101442.81;15637682;28;20505;-68
2021/03/31 16:54:05;;;;;;;1999.90;999.90;;;;;;;24.92;24.25;101441.25;15644190;28;20041;-69
2021/03/31 17:01:38;;;;;;;1999.90;999.90;;;;;;;24.73;25.06;101431.13;15669695;28;20040;-70
2021/03/31 17:09:11;;;;;;;1999.90;999.90;;;;;;;24.52;26.27;101418.97;15619904;28;20052;-69
2021/03/31 17:16:44;;;;;;;1999.90;999.90;;;;;;;24.29;25.67;101416.56;15726280;28;20052;-69
2021/03/31 17:24:16;;;;;;;1999.90;999.90;;;;;;;24.05;26.06;101410.47;15727240;28;20045;-68
2021/03/31 17:31:48;;;;;;;1999.90;999.90;;;;;;;23.56;27.10;101406.41;15692466;28;20612;-68
2021/03/31 17:39:21;;;;;;;1999.90;999.90;;;;;;;22.72;31.11;101397.22;15712142;28;20073;-69
2021/03/31 17:46:53;;;;;;;1999.90;999.90;;;;;;;22.04;32.75;101390.28;15715923;28;20060;-71
2021/03/31 17:54:25;;;;;;;1999.90;999.90;;;;;;;21.48;34.97;101393.50;15735291;28;20049;-70
2021/03/31 18:01:57;;;;;;;1999.90;999.90;;;;;;;20.89;36.53;101398.91;15697554;28;20299;-72
2021/03/31 18:09:30;;;;;;;1999.90;999.90;;;;;;;20.44;37.80;101405.66;15674337;28;20052;-70
2021/03/31 18:17:05;;;;;;;1999.90;999.90;;;;;;;20.04;38.46;101395.72;15680984;28;20530;-72
2021/03/31 18:24:38;;;;;;;1999.90;999.90;;;;;;;19.73;39.00;101394.00;15674487;28;20183;-69
2021/03/31 18:32:11;;;;;;;1999.90;999.90;;;;;;;19.45;39.48;101396.31;15680143;28;20131;-69
2021/03/31 18:39:53;;;;;;;1999.90;999.90;;;;;;;19.11;39.74;101389.63;15681166;28;20419;-73
2021/03/31 18:47:26;;;;;;;1999.90;999.90;;;;;;;18.70;40.71;101384.41;15705622;28;20055;-72
2021/03/31 18:54:58;;;;;;;1999.90;999.90;;;;;;;18.44;40.43;101376.56;15663406;28;20813;-72
2021/03/31 19:02:30;;;;;;;1999.90;999.90;;;;;;;18.08;40.61;101388.22;15723462;28;20052;-71
2021/03/31 19:17:57;;;;;;;1999.90;999.90;;;;;;;17.58;42.39;101387.00;15634515;28;20150;-71
2021/03/31 19:25:30;;;;;;;1999.90;999.90;;;;;;;17.37;43.37;101394.91;15643650;28;20049;-70
2021/03/31 19:33:02;;;;;;;1999.90;999.90;;;;;;;17.18;43.97;101387.97;15659150;28;20081;-71
2021/03/31 19:40:36;;;;;;;1999.90;999.90;;;;;;;17.03;44.90;101371.84;15655377;28;20052;-70
2021/03/31 19:48:08;;;;;;;1999.90;999.90;;;;;;;16.89;44.93;101375.13;15660853;28;20472;-71
2021/03/31 19:55:42;;;;;;;1999.90;999.90;;;;;;;16.58;45.43;101372.16;15632271;28;20131;-72
2021/03/31 20:03:13;;;;;;;1999.90;999.90;;;;;;;16.32;46.58;101369.78;15649088;28;20045;-70
2021/03/31 20:10:45;;;;;;;1999.90;999.90;;;;;;;16.08;47.45;101370.66;15629179;28;20041;-72
2021/03/31 20:18:17;;;;;;;1999.90;999.90;;;;;;;15.89;48.47;101357.19;15700679;28;20056;-72
2021/03/31 20:25:49;;;;;;;1999.90;999.90;;;;;;;15.64;48.81;101347.16;15678971;28;20045;-71
2021/03/31 20:33:36;;;;;;;1999.90;999.90;;;;;;;15.36;50.36;101341.34;15732123;28;20087;-71
2021/03/31 20:41:09;;;;;;;1999.90;999.90;;;;;;;15.27;51.00;101336.66;15729231;28;20076;-71
2021/03/31 20:48:43;;;;;;;1999.90;999.90;;;;;;;15.12;50.84;101328.09;15685826;28;20043;-69
2021/03/31 20:56:16;;;;;;;1999.90;999.90;;;;;;;15.01;50.80;101330.53;15717771;28;20101;-72
2021/03/31 21:03:47;;;;;;;1999.90;999.90;;;;;;;14.98;49.82;101326.41;15731279;28;20059;-71
2021/03/31 21:11:20;;;;;;;1999.90;999.90;;;;;;;14.76;49.94;101321.22;15691143;28;20484;-71
2021/03/31 21:18:53;;;;;;;1999.90;999.90;;;;;;;14.50;50.67;101323.47;15701470;28;20072;-69
2021/03/31 21:26:25;;;;;;;1999.90;999.90;;;;;;;14.35;51.33;101314.47;15707453;28;20081;-72
2021/03/31 21:33:59;;;;;;;1999.90;999.90;;;;;;;14.05;52.22;101313.75;15707336;28;20520;-70
2021/03/31 21:41:31;;;;;;;;;;;;;;;14.10;52.35;101315.53;15720563;28;20047;-70
2021/03/31 21:49:03;;;;;;;1999.90;999.90;;;;;;;13.95;52.19;101304.91;15721795;28;19927;-70
2021/03/31 21:56:35;;;;;;;1999.90;999.90;;;;;;;13.69;53.38;101297.50;15699396;28;20125;-69
2021/03/31 22:04:06;;;;;;;1999.90;999.90;;;;;;;13.70;53.20;101290.75;15725638;28;20041;-69
2021/03/31 22:11:40;;;;;;;1999.90;999.90;;;;;;;13.59;53.31;101297.91;15730934;22;20075;-50
2021/03/31 22:19:11;;;;;;;1999.90;999.90;;;;;;;13.41;54.07;101290.75;15713310;28;20444;-58
2021/03/31 22:26:44;;;;;;;1999.90;999.90;;;;;;;13.24;54.39;101291.69;15680472;22;20056;-63
2021/03/31 22:34:15;;;;;;;1999.90;999.90;;;;;;;13.05;54.72;101291.25;15676643;28;20041;-63
2021/03/31 22:41:48;;;;;;;1999.90;999.90;;;;;;;12.91;55.42;101278.25;15597183;28;20634;-63
2021/03/31 22:49:20;;;;;;;1999.90;999.90;;;;;;;12.93;55.75;101273.16;15571719;28;20456;-63
2021/03/31 22:56:52;;;;;;;1999.90;999.90;;;;;;;12.92;54.64;101263.13;15585930;28;20053;-62
2021/03/31 23:04:28;;;;;;;1999.90;999.90;;;;;;;12.71;55.77;101263.03;15559056;28;20126;-61
2021/03/31 23:12:01;;;;;;;1999.90;999.90;;;;;;;12.66;55.38;101260.41;15551817;28;20042;-62
2021/03/31 23:19:32;;;;;;;1999.90;999.90;;;;;;;12.37;55.91;101257.50;15591523;28;20245;-62
2021/03/31 23:27:06;;;;;;;1999.90;999.90;;;;;;;12.35;55.61;101245.81;15589874;28;20034;-62
2021/03/31 23:34:37;;;;;;;1999.90;999.90;;;;;;;12.23;55.97;101240.09;15568844;28;20413;-61
2021/03/31 23:42:10;;;;;;;1999.90;999.90;;;;;;;12.07;56.17;101229.38;15569725;28;20061;-59
2021/03/31 23:49:42;;;;;;;1999.90;999.90;;;;;;;11.89;56.84;101224.16;15583784;28;20084;-60
2021/03/31 23:57:14;;;;;;;1999.90;999.90;;;;;;;11.88;56.90;101226.13;15599083;28;20049;-60
